sensor_id;sensor_type;location;lat;lon;timestamp;temperature;humidity
24450;DHT22;13349;50.984;5.822;2023-03-12T00:00:11;3.00;99.90
24450;DHT22;13349;50.984;5.822;2023-03-12T00:02:39;3.00;99.90
24450;DHT22;13349;50.984;5.822;2023-03-12T00:05:07;3.00;99.90
24450;DHT22;13349;50.984;5.822;2023-03-12T00:07:34;3.00;99.90
24450;DHT22;13349;50.984;5.822;2023-03-12T00:10:01;3.00;99.90
24450;DHT22;13349;50.984;5.822;2023-03-12T00:12:28;3.00;99.90
24450;DHT22;13349;50.984;5.822;2023-03-12T00:14:55;3.00;99.90
24450;DHT22;13349;50.984;5.822;2023-03-12T00:17:21;2.90;99.90
24450;DHT22;13349;50.984;5.822;2023-03-12T00:19:51;2.90;99.90
24450;DHT22;13349;50.984;5.822;2023-03-12T00:22:18;2.90;99.90
24450;DHT22;13349;50.984;5.822;2023-03-12T00:24:49;3.00;99.90
24450;DHT22;13349;50.984;5.822;2023-03-12T00:27:16;2.90;99.90
24450;DHT22;13349;50.984;5.822;2023-03-12T00:29:43;2.90;99.90
24450;DHT22;13349;50.984;5.822;2023-03-12T00:32:10;2.90;99.90
24450;DHT22;13349;50.984;5.822;2023-03-12T00:34:37;3.00;99.90
24450;DHT22;13349;50.984;5.822;2023-03-12T00:37:05;3.00;99.90
24450;DHT22;13349;50.984;5.822;2023-03-12T00:39:33;3.00;99.90
24450;DHT22;13349;50.984;5.822;2023-03-12T00:42:00;3.00;99.90
24450;DHT22;13349;50.984;5.822;2023-03-12T00:44:27;3.00;99.90
24450;DHT22;13349;50.984;5.822;2023-03-12T00:46:54;3.00;99.90
24450;DHT22;13349;50.984;5.822;2023-03-12T00:49:21;3.00;99.90
24450;DHT22;13349;50.984;5.822;2023-03-12T00:51:48;3.00;99.90
24450;DHT22;13349;50.984;5.822;2023-03-12T00:54:16;3.00;99.90
24450;DHT22;13349;50.984;5.822;2023-03-12T00:56:43;3.00;99.90
24450;DHT22;13349;50.984;5.822;2023-03-12T00:59:11;3.10;99.90
24450;DHT22;13349;50.984;5.822;2023-03-12T01:01:38;3.10;99.90
24450;DHT22;13349;50.984;5.822;2023-03-12T01:04:05;3.10;99.90
24450;DHT22;13349;50.984;5.822;2023-03-12T01:06:32;3.20;99.90
24450;DHT22;13349;50.984;5.822;2023-03-12T01:08:59;3.20;99.90
24450;DHT22;13349;50.984;5.822;2023-03-12T01:11:28;3.20;99.90
24450;DHT22;13349;50.984;5.822;2023-03-12T01:13:55;3.20;99.90
24450;DHT22;13349;50.984;5.822;2023-03-12T01:16:22;3.30;99.90
24450;DHT22;13349;50.984;5.822;2023-03-12T01:18:52;3.30;99.90
24450;DHT22;13349;50.984;5.822;2023-03-12T01:21:19;3.30;99.90
24450;DHT22;13349;50.984;5.822;2023-03-12T01:23:46;3.30;99.90
24450;DHT22;13349;50.984;5.822;2023-03-12T01:26:13;3.30;99.90
24450;DHT22;13349;50.984;5.822;2023-03-12T01:28:41;3.30;99.90
24450;DHT22;13349;50.984;5.822;2023-03-12T01:31:09;3.30;99.90
24450;DHT22;13349;50.984;5.822;2023-03-12T01:33:37;3.40;99.90
24450;DHT22;13349;50.984;5.822;2023-03-12T01:36:04;3.30;99.90
24450;DHT22;13349;50.984;5.822;2023-03-12T01:38:31;3.30;99.90
24450;DHT22;13349;50.984;5.822;2023-03-12T01:40:58;3.30;99.90
24450;DHT22;13349;50.984;5.822;2023-03-12T01:43:26;3.30;99.90
24450;DHT22;13349;50.984;5.822;2023-03-12T01:46:05;3.40;99.90
24450;DHT22;13349;50.984;5.822;2023-03-12T01:48:33;3.60;99.90
24450;DHT22;13349;50.984;5.822;2023-03-12T01:51:02;3.60;99.90
24450;DHT22;13349;50.984;5.822;2023-03-12T01:53:30;3.60;99.90
24450;DHT22;13349;50.984;5.822;2023-03-12T01:55:57;3.70;99.90
24450;DHT22;13349;50.984;5.822;2023-03-12T01:58:25;3.70;99.90
24450;DHT22;13349;50.984;5.822;2023-03-12T02:00:53;3.90;99.90
24450;DHT22;13349;50.984;5.822;2023-03-12T02:03:21;3.80;99.90
24450;DHT22;13349;50.984;5.822;2023-03-12T02:05:50;4.00;99.90
24450;DHT22;13349;50.984;5.822;2023-03-12T02:08:18;4.00;99.90
24450;DHT22;13349;50.984;5.822;2023-03-12T02:10:45;4.00;99.90
24450;DHT22;13349;50.984;5.822;2023-03-12T02:13:12;4.10;99.90
24450;DHT22;13349;50.984;5.822;2023-03-12T02:15:39;4.10;99.90
24450;DHT22;13349;50.984;5.822;2023-03-12T02:18:07;4.00;99.90
24450;DHT22;13349;50.984;5.822;2023-03-12T02:20:38;4.10;99.90
24450;DHT22;13349;50.984;5.822;2023-03-12T02:23:08;4.10;99.90
24450;DHT22;13349;50.984;5.822;2023-03-12T02:25:37;4.10;99.90
24450;DHT22;13349;50.984;5.822;2023-03-12T02:28:06;4.10;99.90
24450;DHT22;13349;50.984;5.822;2023-03-12T02:30:33;4.10;99.90
24450;DHT22;13349;50.984;5.822;2023-03-12T02:33:01;4.10;97.40
24450;DHT22;13349;50.984;5.822;2023-03-12T02:35:30;4.10;95.20
24450;DHT22;13349;50.984;5.822;2023-03-12T02:37:57;4.10;92.90
24450;DHT22;13349;50.984;5.822;2023-03-12T02:40:25;4.10;91.20
24450;DHT22;13349;50.984;5.822;2023-03-12T02:42:55;4.20;82.10
24450;DHT22;13349;50.984;5.822;2023-03-12T02:45:23;4.30;70.90
24450;DHT22;13349;50.984;5.822;2023-03-12T02:47:50;4.30;64.90
24450;DHT22;13349;50.984;5.822;2023-03-12T02:50:17;4.30;54.00
24450;DHT22;13349;50.984;5.822;2023-03-12T02:52:44;4.30;60.30
24450;DHT22;13349;50.984;5.822;2023-03-12T02:55:11;4.20;78.40
24450;DHT22;13349;50.984;5.822;2023-03-12T02:57:38;4.20;67.50
24450;DHT22;13349;50.984;5.822;2023-03-12T03:00:07;4.20;72.40
24450;DHT22;13349;50.984;5.822;2023-03-12T03:02:36;4.20;82.80
24450;DHT22;13349;50.984;5.822;2023-03-12T03:05:03;4.20;82.70
24450;DHT22;13349;50.984;5.822;2023-03-12T03:07:30;4.20;95.20
24450;DHT22;13349;50.984;5.822;2023-03-12T03:09:57;4.20;94.90
24450;DHT22;13349;50.984;5.822;2023-03-12T03:12:28;4.20;99.90
24450;DHT22;13349;50.984;5.822;2023-03-12T03:14:55;4.20;99.90
24450;DHT22;13349;50.984;5.822;2023-03-12T03:17:24;4.20;99.90
24450;DHT22;13349;50.984;5.822;2023-03-12T03:19:51;4.10;99.90
24450;DHT22;13349;50.984;5.822;2023-03-12T03:22:18;4.10;99.90
24450;DHT22;13349;50.984;5.822;2023-03-12T03:24:46;4.10;99.90
24450;DHT22;13349;50.984;5.822;2023-03-12T03:27:13;4.10;99.90
24450;DHT22;13349;50.984;5.822;2023-03-12T03:29:40;4.00;99.90
24450;DHT22;13349;50.984;5.822;2023-03-12T03:32:06;4.10;99.90
24450;DHT22;13349;50.984;5.822;2023-03-12T03:34:35;4.10;99.90
24450;DHT22;13349;50.984;5.822;2023-03-12T03:37:02;4.10;99.90
24450;DHT22;13349;50.984;5.822;2023-03-12T03:39:29;4.20;99.90
24450;DHT22;13349;50.984;5.822;2023-03-12T03:41:56;4.20;99.90
24450;DHT22;13349;50.984;5.822;2023-03-12T03:44:23;4.10;99.90
24450;DHT22;13349;50.984;5.822;2023-03-12T03:46:50;4.20;99.90
24450;DHT22;13349;50.984;5.822;2023-03-12T03:49:17;4.10;99.90
24450;DHT22;13349;50.984;5.822;2023-03-12T03:51:46;4.10;99.90
24450;DHT22;13349;50.984;5.822;2023-03-12T03:54:13;4.10;99.90
24450;DHT22;13349;50.984;5.822;2023-03-12T03:56:40;4.00;99.90
24450;DHT22;13349;50.984;5.822;2023-03-12T03:59:07;4.00;99.90
24450;DHT22;13349;50.984;5.822;2023-03-12T04:01:34;4.00;99.90
24450;DHT22;13349;50.984;5.822;2023-03-12T04:04:02;4.00;99.90
24450;DHT22;13349;50.984;5.822;2023-03-12T04:06:29;4.10;99.90
24450;DHT22;13349;50.984;5.822;2023-03-12T04:08:58;4.00;99.90
24450;DHT22;13349;50.984;5.822;2023-03-12T04:11:25;4.00;99.90
24450;DHT22;13349;50.984;5.822;2023-03-12T04:13:51;4.00;99.90
24450;DHT22;13349;50.984;5.822;2023-03-12T04:16:18;4.00;99.90
24450;DHT22;13349;50.984;5.822;2023-03-12T04:18:45;4.00;99.90
24450;DHT22;13349;50.984;5.822;2023-03-12T04:21:12;4.10;99.90
24450;DHT22;13349;50.984;5.822;2023-03-12T04:23:39;4.10;99.90
24450;DHT22;13349;50.984;5.822;2023-03-12T04:26:08;4.00;1.00
24450;DHT22;13349;50.984;5.822;2023-03-12T04:28:35;3.80;1.00
24450;DHT22;13349;50.984;5.822;2023-03-12T04:31:04;3.70;1.00
24450;DHT22;13349;50.984;5.822;2023-03-12T04:33:32;3.60;1.00
24450;DHT22;13349;50.984;5.822;2023-03-12T04:35:59;3.50;1.00
24450;DHT22;13349;50.984;5.822;2023-03-12T04:38:26;3.50;37.10
24450;DHT22;13349;50.984;5.822;2023-03-12T04:40:56;3.40;99.90
24450;DHT22;13349;50.984;5.822;2023-03-12T04:43:25;3.40;99.90
24450;DHT22;13349;50.984;5.822;2023-03-12T04:45:51;3.40;99.90
24450;DHT22;13349;50.984;5.822;2023-03-12T04:48:19;3.30;1.00
24450;DHT22;13349;50.984;5.822;2023-03-12T04:50:46;3.30;1.00
24450;DHT22;13349;50.984;5.822;2023-03-12T04:53:13;3.30;1.00
24450;DHT22;13349;50.984;5.822;2023-03-12T04:55:39;3.30;1.00
24450;DHT22;13349;50.984;5.822;2023-03-12T04:58:06;3.40;1.00
24450;DHT22;13349;50.984;5.822;2023-03-12T05:00:35;3.30;1.00
24450;DHT22;13349;50.984;5.822;2023-03-12T05:03:01;3.40;1.00
24450;DHT22;13349;50.984;5.822;2023-03-12T05:05:28;3.40;1.00
24450;DHT22;13349;50.984;5.822;2023-03-12T05:07:55;3.40;1.00
24450;DHT22;13349;50.984;5.822;2023-03-12T05:10:22;3.40;1.00
24450;DHT22;13349;50.984;5.822;2023-03-12T05:12:49;3.40;1.00
24450;DHT22;13349;50.984;5.822;2023-03-12T05:15:16;3.40;1.00
24450;DHT22;13349;50.984;5.822;2023-03-12T05:17:45;3.50;1.00
24450;DHT22;13349;50.984;5.822;2023-03-12T05:20:12;3.50;1.00
24450;DHT22;13349;50.984;5.822;2023-03-12T05:22:39;3.50;13.20
24450;DHT22;13349;50.984;5.822;2023-03-12T05:25:06;3.50;11.70
24450;DHT22;13349;50.984;5.822;2023-03-12T05:27:34;3.60;18.00
24450;DHT22;13349;50.984;5.822;2023-03-12T05:30:01;3.60;23.00
24450;DHT22;13349;50.984;5.822;2023-03-12T05:32:28;3.70;9.80
24450;DHT22;13349;50.984;5.822;2023-03-12T05:34:57;3.60;10.90
24450;DHT22;13349;50.984;5.822;2023-03-12T05:37:24;3.70;34.20
24450;DHT22;13349;50.984;5.822;2023-03-12T05:39:52;3.70;35.10
24450;DHT22;13349;50.984;5.822;2023-03-12T05:42:19;3.70;48.00
24450;DHT22;13349;50.984;5.822;2023-03-12T05:44:46;3.80;33.80
24450;DHT22;13349;50.984;5.822;2023-03-12T05:47:13;3.80;36.90
24450;DHT22;13349;50.984;5.822;2023-03-12T05:49:40;3.80;54.30
24450;DHT22;13349;50.984;5.822;2023-03-12T05:52:08;3.90;74.30
24450;DHT22;13349;50.984;5.822;2023-03-12T05:54:35;3.90;63.70
24450;DHT22;13349;50.984;5.822;2023-03-12T05:57:02;3.90;75.50
24450;DHT22;13349;50.984;5.822;2023-03-12T05:59:29;3.90;99.90
24450;DHT22;13349;50.984;5.822;2023-03-12T06:01:56;4.00;99.90
24450;DHT22;13349;50.984;5.822;2023-03-12T06:04:23;4.10;99.90
24450;DHT22;13349;50.984;5.822;2023-03-12T06:06:50;4.10;99.90
24450;DHT22;13349;50.984;5.822;2023-03-12T06:09:18;4.20;99.90
24450;DHT22;13349;50.984;5.822;2023-03-12T06:11:45;4.20;99.90
24450;DHT22;13349;50.984;5.822;2023-03-12T06:14:12;4.20;1.00
24450;DHT22;13349;50.984;5.822;2023-03-12T06:16:39;4.30;1.00
24450;DHT22;13349;50.984;5.822;2023-03-12T06:19:05;4.30;1.00
24450;DHT22;13349;50.984;5.822;2023-03-12T06:21:33;4.30;1.00
24450;DHT22;13349;50.984;5.822;2023-03-12T06:24:00;4.40;1.00
24450;DHT22;13349;50.984;5.822;2023-03-12T06:26:29;4.40;1.00
24450;DHT22;13349;50.984;5.822;2023-03-12T06:28:56;4.50;1.00
24450;DHT22;13349;50.984;5.822;2023-03-12T06:31:23;4.50;94.10
24450;DHT22;13349;50.984;5.822;2023-03-12T06:33:50;4.60;99.90
24450;DHT22;13349;50.984;5.822;2023-03-12T06:36:18;4.70;99.90
24450;DHT22;13349;50.984;5.822;2023-03-12T06:38:45;4.70;99.90
24450;DHT22;13349;50.984;5.822;2023-03-12T06:41:12;4.80;99.90
24450;DHT22;13349;50.984;5.822;2023-03-12T06:43:41;4.80;99.90
24450;DHT22;13349;50.984;5.822;2023-03-12T06:46:10;4.80;99.90
24450;DHT22;13349;50.984;5.822;2023-03-12T06:48:37;4.90;1.00
24450;DHT22;13349;50.984;5.822;2023-03-12T06:51:05;5.00;1.00
24450;DHT22;13349;50.984;5.822;2023-03-12T06:53:32;5.00;1.00
24450;DHT22;13349;50.984;5.822;2023-03-12T06:55:59;5.00;1.00
24450;DHT22;13349;50.984;5.822;2023-03-12T06:58:26;5.00;1.00
24450;DHT22;13349;50.984;5.822;2023-03-12T07:00:55;5.10;92.50
24450;DHT22;13349;50.984;5.822;2023-03-12T07:03:22;5.10;99.90
24450;DHT22;13349;50.984;5.822;2023-03-12T07:05:49;5.10;99.90
24450;DHT22;13349;50.984;5.822;2023-03-12T07:08:16;5.20;1.00
24450;DHT22;13349;50.984;5.822;2023-03-12T07:10:44;5.20;1.00
24450;DHT22;13349;50.984;5.822;2023-03-12T07:13:11;5.20;99.90
24450;DHT22;13349;50.984;5.822;2023-03-12T07:15:38;5.30;1.00
24450;DHT22;13349;50.984;5.822;2023-03-12T07:18:08;5.30;1.00
24450;DHT22;13349;50.984;5.822;2023-03-12T07:20:35;5.30;1.00
24450;DHT22;13349;50.984;5.822;2023-03-12T07:23:03;5.30;99.90
24450;DHT22;13349;50.984;5.822;2023-03-12T07:25:29;5.40;99.90
24450;DHT22;13349;50.984;5.822;2023-03-12T07:27:56;5.50;26.10
24450;DHT22;13349;50.984;5.822;2023-03-12T07:30:23;5.50;47.30
24450;DHT22;13349;50.984;5.822;2023-03-12T07:32:50;5.50;99.90
24450;DHT22;13349;50.984;5.822;2023-03-12T07:35:19;5.60;99.90
24450;DHT22;13349;50.984;5.822;2023-03-12T07:37:46;5.60;99.90
24450;DHT22;13349;50.984;5.822;2023-03-12T07:40:12;5.60;99.90
24450;DHT22;13349;50.984;5.822;2023-03-12T07:42:39;5.60;99.90
24450;DHT22;13349;50.984;5.822;2023-03-12T07:45:06;5.70;99.90
24450;DHT22;13349;50.984;5.822;2023-03-12T07:47:33;5.70;99.90
24450;DHT22;13349;50.984;5.822;2023-03-12T07:50:00;5.60;99.90
24450;DHT22;13349;50.984;5.822;2023-03-12T07:52:29;5.70;99.90
24450;DHT22;13349;50.984;5.822;2023-03-12T07:54:56;5.70;99.90
24450;DHT22;13349;50.984;5.822;2023-03-12T07:57:23;5.80;99.90
24450;DHT22;13349;50.984;5.822;2023-03-12T07:59:49;5.80;99.90
24450;DHT22;13349;50.984;5.822;2023-03-12T08:02:16;5.90;99.90
24450;DHT22;13349;50.984;5.822;2023-03-12T08:04:44;5.90;99.90
24450;DHT22;13349;50.984;5.822;2023-03-12T08:07:11;6.00;99.90
24450;DHT22;13349;50.984;5.822;2023-03-12T08:09:40;6.00;99.90
24450;DHT22;13349;50.984;5.822;2023-03-12T08:12:07;6.10;99.90
24450;DHT22;13349;50.984;5.822;2023-03-12T08:14:34;6.20;99.90
24450;DHT22;13349;50.984;5.822;2023-03-12T08:17:01;6.30;99.90
24450;DHT22;13349;50.984;5.822;2023-03-12T08:19:28;6.30;99.90
24450;DHT22;13349;50.984;5.822;2023-03-12T08:21:55;6.50;99.90
24450;DHT22;13349;50.984;5.822;2023-03-12T08:24:22;6.50;99.90
24450;DHT22;13349;50.984;5.822;2023-03-12T08:26:50;6.60;99.90
24450;DHT22;13349;50.984;5.822;2023-03-12T08:29:17;6.50;99.90
24450;DHT22;13349;50.984;5.822;2023-03-12T08:31:44;6.70;99.90
24450;DHT22;13349;50.984;5.822;2023-03-12T08:34:11;6.80;99.90
24450;DHT22;13349;50.984;5.822;2023-03-12T08:36:38;6.80;99.90
24450;DHT22;13349;50.984;5.822;2023-03-12T08:39:05;6.80;99.90
24450;DHT22;13349;50.984;5.822;2023-03-12T08:41:32;6.90;99.90
24450;DHT22;13349;50.984;5.822;2023-03-12T08:44:01;6.90;99.90
24450;DHT22;13349;50.984;5.822;2023-03-12T08:46:28;7.00;99.90
24450;DHT22;13349;50.984;5.822;2023-03-12T08:48:55;7.10;99.90
24450;DHT22;13349;50.984;5.822;2023-03-12T08:51:22;7.20;99.90
24450;DHT22;13349;50.984;5.822;2023-03-12T08:53:49;7.20;99.90
24450;DHT22;13349;50.984;5.822;2023-03-12T08:56:16;7.20;99.90
24450;DHT22;13349;50.984;5.822;2023-03-12T08:58:43;7.20;99.90
24450;DHT22;13349;50.984;5.822;2023-03-12T09:01:11;7.30;99.90
24450;DHT22;13349;50.984;5.822;2023-03-12T09:03:39;7.30;99.90
24450;DHT22;13349;50.984;5.822;2023-03-12T09:06:07;7.40;99.90
24450;DHT22;13349;50.984;5.822;2023-03-12T09:08:37;7.60;99.90
24450;DHT22;13349;50.984;5.822;2023-03-12T09:11:05;7.70;99.90
24450;DHT22;13349;50.984;5.822;2023-03-12T09:13:32;7.70;99.90
24450;DHT22;13349;50.984;5.822;2023-03-12T09:15:59;7.70;99.90
24450;DHT22;13349;50.984;5.822;2023-03-12T09:18:28;7.80;99.90
24450;DHT22;13349;50.984;5.822;2023-03-12T09:20:55;7.90;99.90
24450;DHT22;13349;50.984;5.822;2023-03-12T09:23:22;8.00;99.90
24450;DHT22;13349;50.984;5.822;2023-03-12T09:25:50;8.00;99.90
24450;DHT22;13349;50.984;5.822;2023-03-12T09:28:17;8.10;99.90
24450;DHT22;13349;50.984;5.822;2023-03-12T09:30:44;8.20;99.90
24450;DHT22;13349;50.984;5.822;2023-03-12T09:33:12;8.20;99.90
24450;DHT22;13349;50.984;5.822;2023-03-12T09:35:41;8.30;99.90
24450;DHT22;13349;50.984;5.822;2023-03-12T09:38:10;8.40;99.90
24450;DHT22;13349;50.984;5.822;2023-03-12T09:40:38;8.50;99.90
24450;DHT22;13349;50.984;5.822;2023-03-12T09:43:06;8.50;99.90
24450;DHT22;13349;50.984;5.822;2023-03-12T09:45:37;8.60;99.90
24450;DHT22;13349;50.984;5.822;2023-03-12T09:48:05;8.70;99.90
24450;DHT22;13349;50.984;5.822;2023-03-12T09:50:33;8.80;99.90
24450;DHT22;13349;50.984;5.822;2023-03-12T09:53:08;8.90;99.90
24450;DHT22;13349;50.984;5.822;2023-03-12T09:55:38;8.90;99.90
24450;DHT22;13349;50.984;5.822;2023-03-12T09:58:08;8.90;99.90
24450;DHT22;13349;50.984;5.822;2023-03-12T10:00:38;9.00;99.90
24450;DHT22;13349;50.984;5.822;2023-03-12T10:03:09;9.20;99.90
24450;DHT22;13349;50.984;5.822;2023-03-12T10:05:42;9.20;99.90
24450;DHT22;13349;50.984;5.822;2023-03-12T10:08:14;9.20;99.90
24450;DHT22;13349;50.984;5.822;2023-03-12T10:10:46;9.20;99.90
24450;DHT22;13349;50.984;5.822;2023-03-12T10:13:16;9.20;99.90
24450;DHT22;13349;50.984;5.822;2023-03-12T10:15:47;9.10;99.90
24450;DHT22;13349;50.984;5.822;2023-03-12T10:18:20;9.30;99.90
24450;DHT22;13349;50.984;5.822;2023-03-12T10:21:09;9.40;99.90
24450;DHT22;13349;50.984;5.822;2023-03-12T10:23:43;9.50;99.90
24450;DHT22;13349;50.984;5.822;2023-03-12T10:26:12;9.50;99.90
24450;DHT22;13349;50.984;5.822;2023-03-12T10:28:41;9.60;99.90
24450;DHT22;13349;50.984;5.822;2023-03-12T10:31:11;9.60;99.90
24450;DHT22;13349;50.984;5.822;2023-03-12T10:33:41;9.60;99.90
24450;DHT22;13349;50.984;5.822;2023-03-12T10:36:12;9.60;99.90
24450;DHT22;13349;50.984;5.822;2023-03-12T10:38:42;9.60;99.90
24450;DHT22;13349;50.984;5.822;2023-03-12T10:41:13;9.60;99.90
24450;DHT22;13349;50.984;5.822;2023-03-12T10:43:40;9.60;99.90
24450;DHT22;13349;50.984;5.822;2023-03-12T10:46:13;9.60;99.90
24450;DHT22;13349;50.984;5.822;2023-03-12T10:48:41;9.70;99.90
24450;DHT22;13349;50.984;5.822;2023-03-12T10:51:09;9.70;99.90
24450;DHT22;13349;50.984;5.822;2023-03-12T10:53:37;9.90;99.90
24450;DHT22;13349;50.984;5.822;2023-03-12T10:56:06;10.00;99.90
24450;DHT22;13349;50.984;5.822;2023-03-12T10:58:34;10.00;99.90
24450;DHT22;13349;50.984;5.822;2023-03-12T11:01:02;10.20;99.90
24450;DHT22;13349;50.984;5.822;2023-03-12T11:03:29;10.20;99.90
24450;DHT22;13349;50.984;5.822;2023-03-12T11:05:57;10.30;99.90
24450;DHT22;13349;50.984;5.822;2023-03-12T11:08:26;10.30;99.90
24450;DHT22;13349;50.984;5.822;2023-03-12T11:10:54;10.50;99.90
24450;DHT22;13349;50.984;5.822;2023-03-12T11:13:24;10.70;99.90
24450;DHT22;13349;50.984;5.822;2023-03-12T11:15:52;11.10;99.90
24450;DHT22;13349;50.984;5.822;2023-03-12T11:18:24;11.70;99.90
24450;DHT22;13349;50.984;5.822;2023-03-12T11:20:51;12.00;99.90
24450;DHT22;13349;50.984;5.822;2023-03-12T11:23:19;12.40;99.90
24450;DHT22;13349;50.984;5.822;2023-03-12T11:25:51;12.20;99.90
24450;DHT22;13349;50.984;5.822;2023-03-12T11:28:21;12.20;99.90
24450;DHT22;13349;50.984;5.822;2023-03-12T11:30:50;12.30;99.90
24450;DHT22;13349;50.984;5.822;2023-03-12T11:33:18;12.30;99.90
24450;DHT22;13349;50.984;5.822;2023-03-12T11:35:48;12.40;99.90
24450;DHT22;13349;50.984;5.822;2023-03-12T11:38:16;12.50;99.90
24450;DHT22;13349;50.984;5.822;2023-03-12T11:40:50;12.20;99.90
24450;DHT22;13349;50.984;5.822;2023-03-12T11:43:23;12.00;99.90
24450;DHT22;13349;50.984;5.822;2023-03-12T11:45:58;11.80;99.90
24450;DHT22;13349;50.984;5.822;2023-03-12T11:48:30;11.60;99.90
24450;DHT22;13349;50.984;5.822;2023-03-12T11:51:05;11.60;99.90
24450;DHT22;13349;50.984;5.822;2023-03-12T11:53:48;11.80;99.90
24450;DHT22;13349;50.984;5.822;2023-03-12T11:56:25;12.10;99.90
24450;DHT22;13349;50.984;5.822;2023-03-12T11:58:59;12.30;1.00
24450;DHT22;13349;50.984;5.822;2023-03-12T12:01:30;12.50;1.00
24450;DHT22;13349;50.984;5.822;2023-03-12T12:04:07;12.30;99.90
24450;DHT22;13349;50.984;5.822;2023-03-12T12:06:42;12.20;99.90
24450;DHT22;13349;50.984;5.822;2023-03-12T12:09:14;12.40;88.90
24450;DHT22;13349;50.984;5.822;2023-03-12T12:11:48;12.60;99.90
24450;DHT22;13349;50.984;5.822;2023-03-12T12:14:22;12.80;1.00
24450;DHT22;13349;50.984;5.822;2023-03-12T12:16:54;13.10;1.00
24450;DHT22;13349;50.984;5.822;2023-03-12T12:19:26;13.20;1.00
24450;DHT22;13349;50.984;5.822;2023-03-12T12:21:59;13.00;1.00
24450;DHT22;13349;50.984;5.822;2023-03-12T12:24:33;12.90;99.90
24450;DHT22;13349;50.984;5.822;2023-03-12T12:27:04;12.80;99.90
24450;DHT22;13349;50.984;5.822;2023-03-12T12:29:41;12.90;1.00
24450;DHT22;13349;50.984;5.822;2023-03-12T12:32:16;12.80;1.00
24450;DHT22;13349;50.984;5.822;2023-03-12T12:34:59;12.80;1.00
24450;DHT22;13349;50.984;5.822;2023-03-12T12:37:32;12.80;1.00
24450;DHT22;13349;50.984;5.822;2023-03-12T12:40:04;12.70;99.90
24450;DHT22;13349;50.984;5.822;2023-03-12T12:42:34;12.60;95.10
24450;DHT22;13349;50.984;5.822;2023-03-12T12:45:02;12.70;3.20
24450;DHT22;13349;50.984;5.822;2023-03-12T12:47:33;12.70;1.00
24450;DHT22;13349;50.984;5.822;2023-03-12T12:50:02;12.70;1.00
24450;DHT22;13349;50.984;5.822;2023-03-12T12:52:29;12.70;1.00
24450;DHT22;13349;50.984;5.822;2023-03-12T12:54:58;12.70;1.00
24450;DHT22;13349;50.984;5.822;2023-03-12T12:57:26;12.70;1.00
24450;DHT22;13349;50.984;5.822;2023-03-12T13:00:03;12.80;99.90
24450;DHT22;13349;50.984;5.822;2023-03-12T13:02:37;12.90;99.90
24450;DHT22;13349;50.984;5.822;2023-03-12T13:05:12;12.90;99.90
24450;DHT22;13349;50.984;5.822;2023-03-12T13:07:42;13.00;99.90
24450;DHT22;13349;50.984;5.822;2023-03-12T13:10:36;12.90;99.90
24450;DHT22;13349;50.984;5.822;2023-03-12T13:13:03;13.10;99.90
24450;DHT22;13349;50.984;5.822;2023-03-12T13:15:36;13.00;78.00
24450;DHT22;13349;50.984;5.822;2023-03-12T13:18:16;12.70;37.30
24450;DHT22;13349;50.984;5.822;2023-03-12T13:20:44;12.50;1.00
24450;DHT22;13349;50.984;5.822;2023-03-12T13:23:20;12.30;1.00
24450;DHT22;13349;50.984;5.822;2023-03-12T13:25:52;12.20;1.00
24450;DHT22;13349;50.984;5.822;2023-03-12T13:28:32;12.20;13.80
24450;DHT22;13349;50.984;5.822;2023-03-12T13:31:01;12.30;1.00
24450;DHT22;13349;50.984;5.822;2023-03-12T13:33:42;12.60;1.00
24450;DHT22;13349;50.984;5.822;2023-03-12T13:36:20;12.90;1.00
24450;DHT22;13349;50.984;5.822;2023-03-12T13:38:54;13.00;1.00
24450;DHT22;13349;50.984;5.822;2023-03-12T13:41:32;12.80;1.00
24450;DHT22;13349;50.984;5.822;2023-03-12T13:44:00;12.80;1.00
24450;DHT22;13349;50.984;5.822;2023-03-12T13:46:48;12.50;1.00
24450;DHT22;13349;50.984;5.822;2023-03-12T13:49:22;12.30;1.00
24450;DHT22;13349;50.984;5.822;2023-03-12T13:52:00;12.20;1.00
24450;DHT22;13349;50.984;5.822;2023-03-12T13:54:29;12.00;1.00
24450;DHT22;13349;50.984;5.822;2023-03-12T13:56:58;12.00;1.00
24450;DHT22;13349;50.984;5.822;2023-03-12T13:59:25;12.10;1.00
24450;DHT22;13349;50.984;5.822;2023-03-12T14:01:55;12.20;1.00
24450;DHT22;13349;50.984;5.822;2023-03-12T14:04:23;12.40;1.00
24450;DHT22;13349;50.984;5.822;2023-03-12T14:06:54;12.70;1.00
24450;DHT22;13349;50.984;5.822;2023-03-12T14:09:25;12.80;1.00
24450;DHT22;13349;50.984;5.822;2023-03-12T14:11:56;13.10;1.00
24450;DHT22;13349;50.984;5.822;2023-03-12T14:17:15;13.40;1.00
24450;DHT22;13349;50.984;5.822;2023-03-12T14:19:45;13.50;1.00
24450;DHT22;13349;50.984;5.822;2023-03-12T14:22:12;13.40;1.00
24450;DHT22;13349;50.984;5.822;2023-03-12T14:24:40;13.40;1.00
24450;DHT22;13349;50.984;5.822;2023-03-12T14:27:10;13.80;1.00
24450;DHT22;13349;50.984;5.822;2023-03-12T14:29:40;13.50;1.00
24450;DHT22;13349;50.984;5.822;2023-03-12T14:32:12;13.20;99.90
24450;DHT22;13349;50.984;5.822;2023-03-12T14:34:41;13.20;99.90
24450;DHT22;13349;50.984;5.822;2023-03-12T14:37:10;13.20;99.90
24450;DHT22;13349;50.984;5.822;2023-03-12T14:39:40;13.30;99.90
24450;DHT22;13349;50.984;5.822;2023-03-12T14:42:08;13.50;99.90
24450;DHT22;13349;50.984;5.822;2023-03-12T14:44:36;13.60;99.90
24450;DHT22;13349;50.984;5.822;2023-03-12T14:47:04;13.20;99.90
24450;DHT22;13349;50.984;5.822;2023-03-12T14:49:37;12.90;99.90
24450;DHT22;13349;50.984;5.822;2023-03-12T14:52:06;12.80;99.90
24450;DHT22;13349;50.984;5.822;2023-03-12T14:54:33;12.80;99.90
24450;DHT22;13349;50.984;5.822;2023-03-12T14:57:00;12.60;99.90
24450;DHT22;13349;50.984;5.822;2023-03-12T14:59:27;12.60;99.90
24450;DHT22;13349;50.984;5.822;2023-03-12T15:01:59;12.50;99.90
24450;DHT22;13349;50.984;5.822;2023-03-12T15:04:26;12.50;99.90
24450;DHT22;13349;50.984;5.822;2023-03-12T15:06:54;12.50;99.90
24450;DHT22;13349;50.984;5.822;2023-03-12T15:09:24;12.40;99.90
24450;DHT22;13349;50.984;5.822;2023-03-12T15:11:51;12.50;99.90
24450;DHT22;13349;50.984;5.822;2023-03-12T15:14:19;12.50;99.90
24450;DHT22;13349;50.984;5.822;2023-03-12T15:16:47;12.50;99.90
24450;DHT22;13349;50.984;5.822;2023-03-12T15:19:15;12.60;99.90
24450;DHT22;13349;50.984;5.822;2023-03-12T15:21:44;12.60;99.90
24450;DHT22;13349;50.984;5.822;2023-03-12T15:24:12;12.40;99.90
24450;DHT22;13349;50.984;5.822;2023-03-12T15:26:40;12.30;99.90
24450;DHT22;13349;50.984;5.822;2023-03-12T15:29:15;12.30;99.90
24450;DHT22;13349;50.984;5.822;2023-03-12T15:31:51;12.40;99.90
24450;DHT22;13349;50.984;5.822;2023-03-12T15:34:25;12.40;99.90
24450;DHT22;13349;50.984;5.822;2023-03-12T15:36:56;12.30;99.90
24450;DHT22;13349;50.984;5.822;2023-03-12T15:39:24;12.30;99.90
24450;DHT22;13349;50.984;5.822;2023-03-12T15:41:53;12.40;99.90
24450;DHT22;13349;50.984;5.822;2023-03-12T15:44:21;12.40;99.90
24450;DHT22;13349;50.984;5.822;2023-03-12T15:46:50;12.30;99.90
24450;DHT22;13349;50.984;5.822;2023-03-12T15:49:20;12.30;99.90
24450;DHT22;13349;50.984;5.822;2023-03-12T15:51:58;12.20;99.90
24450;DHT22;13349;50.984;5.822;2023-03-12T15:54:25;12.20;99.90
24450;DHT22;13349;50.984;5.822;2023-03-12T15:56:56;12.20;99.90